createdAt,value
2018-12-19T00:00:54.932Z,95.70
2018-12-19T00:03:25.754Z,95.50
2018-12-19T00:05:56.513Z,95.40
2018-12-19T00:08:25.325Z,95.10
2018-12-19T00:10:54.128Z,95.00
2018-12-19T00:13:23.042Z,95.10
2018-12-19T00:15:51.865Z,95.10
2018-12-19T00:18:20.734Z,94.90
2018-12-19T00:20:49.540Z,94.70
2018-12-19T00:23:18.347Z,94.80
2018-12-19T00:25:47.263Z,94.90
2018-12-19T00:28:18.027Z,94.80
2018-12-19T00:30:48.860Z,95.10
2018-12-19T00:33:19.685Z,94.70
2018-12-19T00:35:50.858Z,94.70
2018-12-19T00:38:19.690Z,94.80
2018-12-19T00:40:48.493Z,94.50
2018-12-19T00:43:17.619Z,94.50
2018-12-19T00:45:46.414Z,94.80
2018-12-19T00:48:15.246Z,94.50
2018-12-19T00:50:44.045Z,94.60
2018-12-19T00:53:12.839Z,94.80
2018-12-19T00:55:41.645Z,94.70
2018-12-19T00:58:10.544Z,94.70
2018-12-19T01:00:39.453Z,95.20
2018-12-19T01:03:08.214Z,94.60
2018-12-19T01:05:37.082Z,94.80
2018-12-19T01:08:05.862Z,95.00
2018-12-19T01:10:34.776Z,94.70
2018-12-19T01:13:03.653Z,95.00
2018-12-19T01:15:32.477Z,94.90
2018-12-19T01:18:01.272Z,95.00
2018-12-19T01:20:30.141Z,95.30
2018-12-19T01:22:58.948Z,95.10
2018-12-19T01:25:27.742Z,94.90
2018-12-19T01:27:56.555Z,95.10
2018-12-19T01:30:25.372Z,95.00
2018-12-19T01:32:54.156Z,95.30
2018-12-19T01:35:22.963Z,94.80
2018-12-19T01:37:52.199Z,95.10
2018-12-19T01:40:21.072Z,94.90
2018-12-19T01:42:49.881Z,94.80
2018-12-19T01:45:18.678Z,94.80
2018-12-19T01:47:47.867Z,94.70
2018-12-19T01:50:16.646Z,95.00
2018-12-19T01:52:45.447Z,94.80
2018-12-19T01:55:14.273Z,95.00
2018-12-19T01:57:43.335Z,95.60
2018-12-19T02:00:12.149Z,96.30
2018-12-19T02:02:40.964Z,97.20
2018-12-19T02:05:09.783Z,97.90
2018-12-19T02:07:38.589Z,98.90
2018-12-19T02:10:07.475Z,99.20
2018-12-19T02:12:36.275Z,99.40
2018-12-19T02:15:05.264Z,99.70
2018-12-19T02:17:34.113Z,99.90
2018-12-19T02:20:09.603Z,99.90
2018-12-19T02:22:45.100Z,99.90
2018-12-19T02:25:13.945Z,99.90
2018-12-19T02:27:42.751Z,99.90
2018-12-19T02:30:11.543Z,99.90
2018-12-19T02:32:40.338Z,99.90
2018-12-19T02:35:09.141Z,99.90
2018-12-19T02:37:38.036Z,99.90
2018-12-19T02:40:06.961Z,99.90
2018-12-19T02:42:35.853Z,99.90
2018-12-19T02:45:05.099Z,99.90
2018-12-19T02:47:34.012Z,99.90
2018-12-19T02:50:02.916Z,99.90
2018-12-19T02:52:31.808Z,99.90
2018-12-19T02:55:00.604Z,99.90
2018-12-19T02:57:29.450Z,99.90
2018-12-19T02:59:58.242Z,99.90
2018-12-19T03:02:27.075Z,99.90
2018-12-19T03:04:55.898Z,99.90
2018-12-19T03:07:24.739Z,99.90
2018-12-19T03:09:53.555Z,99.90
2018-12-19T03:12:22.359Z,99.90
2018-12-19T03:14:51.183Z,99.90
2018-12-19T03:17:20.023Z,99.90
2018-12-19T03:19:48.820Z,99.90
2018-12-19T03:22:17.721Z,99.90
2018-12-19T03:24:46.500Z,99.90
2018-12-19T03:27:15.484Z,99.90
2018-12-19T03:29:44.323Z,99.90
2018-12-19T03:32:13.082Z,99.90
2018-12-19T03:34:41.850Z,99.90
2018-12-19T03:37:10.821Z,99.90
2018-12-19T03:39:39.631Z,99.90
2018-12-19T03:42:08.485Z,99.90
2018-12-19T03:44:37.315Z,99.90
2018-12-19T03:47:06.165Z,99.90
2018-12-19T03:49:35.433Z,99.90
2018-12-19T03:52:04.298Z,99.90
2018-12-19T03:54:33.205Z,99.90
2018-12-19T03:57:02.385Z,99.90
2018-12-19T03:59:32.471Z,99.90
2018-12-19T04:02:01.394Z,99.90
2018-12-19T04:04:30.281Z,99.90
2018-12-19T04:06:59.079Z,99.90
2018-12-19T04:09:27.960Z,99.90
2018-12-19T04:11:56.772Z,99.90
2018-12-19T04:14:25.603Z,99.90
2018-12-19T04:16:54.445Z,99.90
2018-12-19T04:19:23.239Z,99.90
2018-12-19T04:21:54.024Z,99.90
2018-12-19T04:24:23.310Z,99.90
2018-12-19T04:26:52.192Z,99.90
2018-12-19T04:29:20.994Z,99.90
2018-12-19T04:31:49.816Z,99.90
2018-12-19T04:34:18.724Z,99.90
2018-12-19T04:36:47.516Z,99.90
2018-12-19T04:39:23.055Z,99.90
2018-12-19T04:41:51.855Z,99.90
2018-12-19T04:44:20.652Z,99.90
2018-12-19T04:46:49.931Z,99.90
2018-12-19T04:49:19.054Z,99.90
2018-12-19T04:51:47.810Z,99.90
2018-12-19T04:54:16.600Z,99.90
2018-12-19T04:56:45.394Z,99.90
2018-12-19T04:59:14.415Z,99.90
2018-12-19T05:01:43.290Z,99.90
2018-12-19T05:04:12.171Z,99.90
2018-12-19T05:06:40.988Z,99.90
2018-12-19T05:09:09.781Z,99.90
2018-12-19T05:11:38.656Z,99.90
2018-12-19T05:14:07.563Z,99.90
2018-12-19T05:16:36.384Z,99.90
2018-12-19T05:19:05.297Z,99.90
2018-12-19T05:21:34.107Z,99.90
2018-12-19T05:24:03.192Z,99.90
2018-12-19T05:26:32.160Z,99.90
2018-12-19T05:29:00.970Z,99.90
2018-12-19T05:31:29.776Z,99.90
2018-12-19T05:33:58.590Z,99.90
2018-12-19T05:36:27.470Z,99.90
2018-12-19T05:38:57.393Z,99.90
2018-12-19T05:41:26.226Z,99.90
2018-12-19T05:43:55.027Z,99.90
2018-12-19T05:46:23.877Z,99.90
2018-12-19T05:48:52.708Z,99.90
2018-12-19T05:51:21.574Z,99.90
2018-12-19T05:53:50.674Z,99.90
2018-12-19T05:56:19.478Z,99.90
2018-12-19T05:58:48.290Z,99.90
2018-12-19T06:01:17.449Z,99.90
2018-12-19T06:03:48.222Z,99.90
2018-12-19T06:06:17.041Z,99.90
2018-12-19T06:08:45.803Z,99.90
2018-12-19T06:11:14.605Z,99.90
2018-12-19T06:13:43.456Z,99.90
2018-12-19T06:16:12.329Z,99.90
2018-12-19T06:18:41.142Z,99.90
2018-12-19T06:21:10.109Z,99.90
2018-12-19T06:23:38.926Z,99.90
2018-12-19T06:26:08.110Z,99.90
2018-12-19T06:28:36.461Z,99.90
2018-12-19T06:31:05.264Z,99.90
2018-12-19T06:33:35.016Z,99.90
2018-12-19T06:36:03.971Z,99.90
2018-12-19T06:38:32.787Z,99.90
2018-12-19T06:41:01.694Z,99.90
2018-12-19T06:43:30.517Z,99.90
2018-12-19T06:45:59.432Z,99.90
2018-12-19T06:48:28.309Z,99.90
2018-12-19T06:50:57.136Z,99.90
2018-12-19T06:53:25.943Z,99.90
2018-12-19T06:55:54.738Z,99.90
2018-12-19T06:58:23.562Z,99.90
2018-12-19T07:00:52.360Z,99.90
2018-12-19T07:03:21.173Z,99.90
2018-12-19T07:05:50.122Z,99.90
2018-12-19T07:08:18.935Z,99.90
2018-12-19T07:10:48.020Z,99.90
2018-12-19T07:13:16.954Z,99.90
2018-12-19T07:15:45.759Z,99.90
2018-12-19T07:18:14.640Z,99.90
2018-12-19T07:20:43.438Z,99.90
2018-12-19T07:23:12.241Z,99.90
2018-12-19T07:25:41.025Z,99.90
2018-12-19T07:28:09.774Z,99.90
2018-12-19T07:30:38.625Z,99.90
2018-12-19T07:33:07.422Z,99.90
2018-12-19T07:35:36.298Z,99.90
2018-12-19T07:38:05.085Z,99.90
2018-12-19T07:40:33.869Z,99.90
2018-12-19T07:43:02.643Z,99.90
2018-12-19T07:45:31.539Z,99.90
2018-12-19T07:48:00.388Z,99.90
2018-12-19T07:50:29.166Z,99.90
2018-12-19T07:52:58.026Z,99.90
2018-12-19T07:55:28.865Z,99.90
2018-12-19T07:57:57.745Z,99.90
2018-12-19T08:00:27.584Z,99.90
2018-12-19T08:02:56.627Z,99.90
2018-12-19T08:05:26.577Z,99.90
2018-12-19T08:07:55.437Z,99.90
2018-12-19T08:10:24.216Z,99.90
2018-12-19T08:12:52.960Z,99.90
2018-12-19T08:15:21.777Z,99.90
2018-12-19T08:17:50.573Z,99.90
2018-12-19T08:20:19.438Z,99.90
2018-12-19T08:22:48.173Z,99.90
2018-12-19T08:25:16.976Z,99.90
2018-12-19T08:27:45.741Z,99.90
2018-12-19T08:30:14.517Z,99.90
2018-12-19T08:32:43.666Z,99.90
2018-12-19T08:35:12.565Z,99.90
2018-12-19T08:37:41.312Z,99.90
2018-12-19T08:40:10.242Z,99.90
2018-12-19T08:42:39.006Z,99.90
2018-12-19T08:45:07.841Z,99.90
2018-12-19T08:47:36.705Z,99.90
2018-12-19T08:50:08.221Z,99.90
2018-12-19T08:52:37.069Z,99.90
2018-12-19T08:55:06.794Z,99.90
2018-12-19T08:57:35.593Z,99.90
2018-12-19T09:00:05.774Z,99.90
2018-12-19T09:02:34.617Z,99.90
2018-12-19T09:07:21.378Z,99.90
2018-12-19T09:09:50.138Z,99.90
2018-12-19T09:12:19.013Z,99.90
2018-12-19T09:14:47.818Z,99.90
2018-12-19T09:17:16.758Z,99.90
2018-12-19T09:19:45.821Z,99.90
2018-12-19T09:22:15.226Z,99.90
2018-12-19T09:24:43.995Z,99.90
2018-12-19T09:27:12.771Z,99.90
2018-12-19T09:29:41.616Z,99.90
2018-12-19T09:32:10.479Z,99.90
2018-12-19T09:34:39.245Z,99.90
2018-12-19T09:37:08.090Z,99.90
2018-12-19T09:39:36.863Z,99.90
2018-12-19T09:42:05.795Z,99.90
2018-12-19T09:44:34.770Z,99.90
2018-12-19T09:47:03.607Z,99.90
2018-12-19T09:49:32.368Z,99.90
2018-12-19T09:52:01.141Z,99.90
2018-12-19T09:54:29.906Z,99.90
2018-12-19T09:56:58.669Z,99.90
2018-12-19T09:59:27.442Z,99.90
2018-12-19T10:01:56.771Z,99.90
2018-12-19T10:04:25.539Z,99.90
2018-12-19T10:06:55.099Z,99.90
2018-12-19T10:09:23.901Z,99.90
2018-12-19T10:11:52.957Z,99.90
2018-12-19T10:14:21.713Z,99.90
2018-12-19T10:16:50.886Z,99.90
2018-12-19T10:19:19.652Z,99.90
2018-12-19T10:21:49.007Z,99.90
2018-12-19T10:24:17.797Z,99.90
2018-12-19T10:26:46.557Z,99.90
2018-12-19T10:29:15.323Z,99.90
2018-12-19T10:31:44.341Z,99.90
2018-12-19T10:34:13.124Z,99.90
2018-12-19T10:36:41.937Z,99.90
2018-12-19T10:39:16.542Z,99.90
2018-12-19T10:41:45.312Z,99.90
2018-12-19T10:44:14.361Z,99.90
2018-12-19T10:46:43.321Z,99.90
2018-12-19T10:49:12.147Z,99.90
2018-12-19T10:51:41.079Z,99.90
2018-12-19T10:54:09.922Z,99.90
2018-12-19T10:56:38.759Z,99.90
2018-12-19T10:59:07.579Z,99.90
2018-12-19T11:01:36.578Z,99.90
2018-12-19T11:04:05.512Z,99.90
2018-12-19T11:06:34.338Z,99.90
2018-12-19T11:09:04.697Z,99.90
2018-12-19T11:11:33.751Z,99.90
2018-12-19T11:14:02.663Z,99.90
2018-12-19T11:16:31.503Z,99.90
2018-12-19T11:19:00.314Z,99.90
2018-12-19T11:21:29.185Z,99.90
2018-12-19T11:23:58.257Z,99.90
2018-12-19T11:26:27.745Z,99.90
2018-12-19T11:28:56.578Z,99.90
2018-12-19T11:31:26.314Z,99.90
2018-12-19T11:33:55.225Z,99.90
2018-12-19T11:36:24.037Z,99.90
2018-12-19T11:38:53.147Z,99.90
2018-12-19T11:41:21.934Z,99.90
2018-12-19T11:43:50.796Z,99.90
2018-12-19T11:46:19.762Z,99.90
2018-12-19T11:48:48.662Z,99.90
2018-12-19T11:51:18.312Z,99.90
2018-12-19T11:53:47.615Z,99.90
2018-12-19T11:56:16.437Z,99.90
2018-12-19T11:58:45.252Z,99.90
2018-12-19T12:01:14.080Z,99.90
2018-12-19T12:03:42.966Z,99.90
2018-12-19T12:06:13.779Z,99.90
2018-12-19T12:08:42.590Z,99.90
2018-12-19T12:11:11.424Z,99.90
2018-12-19T12:13:40.253Z,99.90
2018-12-19T12:16:09.255Z,99.90
2018-12-19T12:18:38.096Z,99.90
2018-12-19T12:21:06.930Z,99.90
2018-12-19T12:23:35.808Z,99.90
2018-12-19T12:26:05.639Z,99.90
2018-12-19T12:28:35.582Z,99.90
2018-12-19T12:31:04.610Z,99.90
2018-12-19T12:33:40.243Z,99.90
2018-12-19T12:36:09.186Z,99.90
2018-12-19T12:38:38.050Z,99.90
2018-12-19T12:41:06.963Z,99.90
2018-12-19T12:43:35.745Z,99.90
2018-12-19T12:46:04.606Z,99.90
2018-12-19T12:48:33.480Z,99.90
2018-12-19T12:51:02.316Z,99.90
2018-12-19T12:53:32.125Z,99.90
2018-12-19T12:56:01.019Z,99.90
2018-12-19T12:58:29.873Z,99.90
2018-12-19T13:00:58.682Z,99.90
2018-12-19T13:03:27.486Z,99.90
2018-12-19T13:05:57.698Z,99.90
2018-12-19T13:08:26.485Z,99.90
2018-12-19T13:10:55.313Z,99.90
2018-12-19T13:13:24.135Z,99.90
2018-12-19T13:15:53.085Z,99.90
2018-12-19T13:18:21.918Z,99.90
2018-12-19T13:20:50.757Z,99.90
2018-12-19T13:23:20.648Z,99.90
2018-12-19T13:25:49.564Z,99.90
2018-12-19T13:28:18.417Z,99.90
2018-12-19T13:30:47.174Z,99.90
2018-12-19T13:33:15.957Z,99.90
2018-12-19T13:35:44.809Z,99.90
2018-12-19T13:38:13.647Z,99.90
2018-12-19T13:40:42.481Z,99.90
2018-12-19T13:43:11.313Z,99.90
2018-12-19T13:45:40.181Z,99.90
2018-12-19T13:48:09.027Z,99.90
2018-12-19T13:50:37.968Z,99.90
2018-12-19T13:53:06.887Z,99.90
2018-12-19T13:55:36.368Z,99.90
2018-12-19T13:58:07.172Z,99.90
2018-12-19T14:00:36.114Z,99.90
2018-12-19T14:03:04.971Z,99.80
2018-12-19T14:05:33.866Z,99.80
2018-12-19T14:08:02.791Z,99.90
2018-12-19T14:10:32.609Z,99.90
2018-12-19T14:13:01.615Z,99.90
2018-12-19T14:15:30.695Z,99.90
2018-12-19T14:17:59.551Z,99.90
2018-12-19T14:20:28.411Z,99.90
2018-12-19T14:22:57.305Z,99.90
2018-12-19T14:25:26.147Z,99.90
2018-12-19T14:27:55.024Z,99.90
2018-12-19T14:30:23.913Z,99.90
2018-12-19T14:32:52.804Z,99.90
2018-12-19T14:35:21.632Z,99.90
2018-12-19T14:37:50.482Z,99.90
2018-12-19T14:40:19.324Z,99.90
2018-12-19T14:42:48.208Z,99.90
2018-12-19T14:45:19.219Z,99.90
2018-12-19T14:47:48.272Z,99.90
2018-12-19T14:50:17.130Z,99.90
2018-12-19T14:52:47.035Z,99.90
2018-12-19T14:55:15.879Z,99.90
2018-12-19T14:57:44.729Z,99.90
2018-12-19T15:00:13.585Z,99.90
2018-12-19T15:02:42.421Z,99.90
2018-12-19T15:05:11.367Z,99.90
2018-12-19T15:07:40.394Z,99.90
2018-12-19T15:10:09.389Z,99.90
2018-12-19T15:12:38.364Z,99.90
2018-12-19T15:15:08.605Z,99.90
2018-12-19T15:17:37.427Z,99.90
2018-12-19T15:20:06.329Z,99.90
2018-12-19T15:22:35.084Z,99.90
2018-12-19T15:25:05.140Z,99.90
2018-12-19T15:27:33.935Z,99.90
2018-12-19T15:30:02.952Z,99.90
2018-12-19T15:32:32.805Z,99.90
2018-12-19T15:35:01.607Z,99.90
2018-12-19T15:37:30.370Z,99.90
2018-12-19T15:39:59.206Z,99.90
2018-12-19T15:42:32.433Z,99.90
2018-12-19T15:44:58.782Z,99.90
2018-12-19T15:47:27.694Z,99.90
2018-12-19T15:49:56.477Z,99.90
2018-12-19T15:52:32.319Z,99.90
2018-12-19T15:55:01.207Z,99.90
2018-12-19T15:57:30.023Z,99.90
2018-12-19T15:59:58.851Z,99.90
2018-12-19T16:02:27.883Z,99.90
2018-12-19T16:04:56.764Z,99.90
2018-12-19T16:07:27.308Z,99.90
2018-12-19T16:09:56.167Z,99.90
2018-12-19T16:12:25.418Z,99.90
2018-12-19T16:14:54.350Z,99.90
2018-12-19T16:17:23.115Z,99.90
2018-12-19T16:19:51.869Z,99.90
2018-12-19T16:22:20.697Z,99.90
2018-12-19T16:24:49.572Z,99.90
2018-12-19T16:27:18.431Z,99.90
2018-12-19T16:29:47.454Z,99.90
2018-12-19T16:32:16.302Z,99.90
2018-12-19T16:34:45.334Z,99.90
2018-12-19T16:37:14.313Z,99.90
2018-12-19T16:39:43.187Z,99.90
2018-12-19T16:42:12.099Z,99.90
2018-12-19T16:44:41.322Z,99.90
2018-12-19T16:47:10.184Z,99.90
2018-12-19T16:49:39.845Z,99.90
2018-12-19T16:52:08.771Z,99.90
2018-12-19T16:54:37.640Z,99.90
2018-12-19T16:57:06.930Z,99.90
2018-12-19T16:59:42.152Z,99.90
2018-12-19T17:02:11.251Z,99.90
2018-12-19T17:04:40.159Z,99.90
2018-12-19T17:07:09.095Z,99.90
2018-12-19T17:09:37.905Z,99.90
2018-12-19T17:12:06.830Z,99.90
2018-12-19T17:14:36.716Z,99.90
2018-12-19T17:17:05.633Z,99.90
2018-12-19T17:19:34.461Z,99.90
2018-12-19T17:22:04.701Z,99.90
2018-12-19T17:24:38.909Z,99.90
2018-12-19T17:27:07.942Z,99.90
2018-12-19T17:29:37.182Z,99.90
2018-12-19T17:32:06.072Z,99.90
2018-12-19T17:34:36.039Z,99.90
2018-12-19T17:37:06.275Z,99.90
2018-12-19T17:39:35.119Z,99.90
2018-12-19T17:42:04.348Z,99.90
2018-12-19T17:44:33.530Z,99.90
2018-12-19T17:47:02.351Z,99.90
2018-12-19T17:49:31.158Z,99.90
2018-12-19T17:52:00.244Z,99.90
2018-12-19T17:54:30.144Z,99.90
2018-12-19T17:56:58.999Z,99.90
2018-12-19T17:59:27.868Z,99.90
2018-12-19T18:01:56.895Z,99.90
2018-12-19T18:04:25.727Z,99.90
2018-12-19T18:06:54.563Z,99.90
2018-12-19T18:09:23.437Z,99.90
2018-12-19T18:11:52.778Z,99.90
2018-12-19T18:14:21.619Z,99.90
2018-12-19T18:16:50.479Z,99.90
2018-12-19T18:19:23.350Z,99.90
2018-12-19T18:21:50.231Z,99.90
2018-12-19T18:24:19.068Z,99.90
2018-12-19T18:26:47.927Z,99.90
2018-12-19T18:29:16.839Z,99.90
2018-12-19T18:31:45.715Z,99.90
2018-12-19T18:34:14.544Z,99.90
2018-12-19T18:36:43.443Z,99.90
2018-12-19T18:39:12.271Z,99.90
2018-12-19T18:41:41.094Z,99.90
2018-12-19T18:44:10.012Z,99.90
2018-12-19T18:46:38.881Z,99.90
2018-12-19T18:49:07.737Z,99.90
2018-12-19T18:51:36.617Z,99.90
2018-12-19T18:54:05.747Z,99.90
2018-12-19T18:56:34.582Z,99.90
2018-12-19T18:59:03.477Z,99.90
2018-12-19T19:01:32.404Z,99.90
2018-12-19T19:04:01.268Z,99.90
2018-12-19T19:06:30.210Z,99.90
2018-12-19T19:08:59.333Z,99.90
2018-12-19T19:11:28.996Z,99.90
2018-12-19T19:13:57.865Z,99.90
2018-12-19T19:16:28.661Z,99.90
2018-12-19T19:18:59.839Z,99.90
2018-12-19T19:21:29.176Z,99.90
2018-12-19T19:23:58.585Z,99.90
2018-12-19T19:26:28.524Z,99.90
2018-12-19T19:28:57.589Z,99.90
2018-12-19T19:31:26.466Z,99.90
2018-12-19T19:33:56.423Z,99.90
2018-12-19T19:36:25.329Z,99.90
2018-12-19T19:38:54.196Z,99.90
2018-12-19T19:41:23.101Z,99.90
2018-12-19T19:43:52.116Z,99.90
2018-12-19T19:46:20.914Z,99.90
2018-12-19T19:48:49.727Z,99.90
2018-12-19T19:51:25.986Z,99.90
2018-12-19T19:53:54.832Z,99.90
2018-12-19T19:56:24.486Z,99.90
2018-12-19T19:58:53.255Z,99.90
2018-12-19T20:01:22.174Z,99.90
2018-12-19T20:03:51.003Z,99.90
2018-12-19T20:06:19.839Z,99.90
2018-12-19T20:08:48.675Z,99.90
2018-12-19T20:11:17.459Z,99.90
2018-12-19T20:13:46.271Z,99.90
2018-12-19T20:16:15.110Z,99.90
2018-12-19T20:18:43.951Z,99.90
2018-12-19T20:21:13.662Z,99.90
2018-12-19T20:23:42.929Z,99.90
2018-12-19T20:26:11.741Z,99.90
2018-12-19T20:28:40.556Z,99.90
2018-12-19T20:31:09.378Z,99.90
2018-12-19T20:33:38.187Z,99.90
2018-12-19T20:36:06.999Z,99.90
2018-12-19T20:38:35.881Z,99.90
2018-12-19T20:41:04.999Z,99.90
2018-12-19T20:43:39.796Z,99.90
2018-12-19T20:46:04.830Z,99.90
2018-12-19T20:48:33.656Z,99.90
2018-12-19T20:51:02.591Z,99.90
2018-12-19T20:53:31.395Z,99.90
2018-12-19T20:56:03.723Z,99.90
2018-12-19T20:58:31.169Z,99.90
2018-12-19T21:00:59.967Z,99.90
2018-12-19T21:03:33.544Z,99.90
2018-12-19T21:06:02.505Z,99.90
2018-12-19T21:08:36.309Z,99.90
2018-12-19T21:11:05.795Z,99.90
2018-12-19T21:13:34.718Z,99.90
2018-12-19T21:16:03.669Z,99.90
2018-12-19T21:18:38.091Z,99.90
2018-12-19T21:21:06.943Z,99.90
2018-12-19T21:23:35.780Z,99.90
2018-12-19T21:26:04.730Z,99.90
2018-12-19T21:28:33.673Z,99.90
2018-12-19T21:31:02.501Z,99.90
2018-12-19T21:33:31.377Z,99.90
2018-12-19T21:36:00.437Z,99.90
2018-12-19T21:38:29.410Z,99.90
2018-12-19T21:40:58.277Z,99.90
2018-12-19T21:43:27.116Z,99.90
2018-12-19T21:45:55.989Z,99.90
2018-12-19T21:48:24.851Z,99.90
2018-12-19T21:50:53.683Z,99.90
2018-12-19T21:53:22.535Z,99.90
2018-12-19T21:55:51.391Z,99.90
2018-12-19T21:58:21.063Z,99.90
2018-12-19T22:00:50.048Z,99.90
2018-12-19T22:03:19.227Z,99.90
2018-12-19T22:05:48.224Z,99.90
2018-12-19T22:08:17.152Z,99.90
2018-12-19T22:10:46.182Z,99.90
2018-12-19T22:13:15.870Z,99.90
2018-12-19T22:15:44.830Z,99.90
2018-12-19T22:18:19.254Z,99.90
2018-12-19T22:20:48.202Z,99.90
2018-12-19T22:23:17.212Z,99.90
2018-12-19T22:25:46.159Z,99.90
2018-12-19T22:28:15.077Z,99.90
2018-12-19T22:30:44.169Z,99.90
2018-12-19T22:33:13.040Z,99.90
2018-12-19T22:35:42.734Z,99.90
2018-12-19T22:38:11.604Z,99.90
2018-12-19T22:40:40.513Z,99.90
2018-12-19T22:43:09.546Z,99.90
2018-12-19T22:45:38.991Z,99.90
2018-12-19T22:48:09.224Z,99.90
2018-12-19T22:50:38.160Z,99.90
2018-12-19T22:53:07.889Z,99.90
2018-12-19T22:55:36.808Z,99.90
2018-12-19T22:58:06.683Z,99.90
2018-12-19T23:00:40.940Z,99.90
2018-12-19T23:03:09.808Z,99.90
2018-12-19T23:05:44.299Z,99.90
2018-12-19T23:08:13.191Z,99.90
2018-12-19T23:10:42.328Z,99.90
2018-12-19T23:13:11.409Z,99.90
2018-12-19T23:15:42.307Z,99.90
2018-12-19T23:18:22.353Z,99.90
2018-12-19T23:20:57.211Z,99.90
2018-12-19T23:23:31.989Z,99.90
2018-12-19T23:26:06.568Z,99.90
2018-12-19T23:28:37.558Z,99.90
2018-12-19T23:31:06.548Z,99.90
2018-12-19T23:33:35.453Z,99.90
2018-12-19T23:36:04.543Z,99.90
2018-12-19T23:38:33.415Z,99.90
2018-12-19T23:41:02.328Z,99.90
2018-12-19T23:43:31.262Z,99.90
2018-12-19T23:46:00.109Z,99.90
2018-12-19T23:48:29.009Z,99.90
2018-12-19T23:50:57.867Z,99.90
2018-12-19T23:53:26.878Z,99.90
2018-12-19T23:55:55.732Z,99.90
2018-12-19T23:58:24.653Z,99.90
